Time;durP1;ratioP1;P1;durP2;ratioP2;P2;SDS_P1;SDS_P2;PMS_P1;PMS_P2;Temp;Humidity;BMP_temperature;BMP_pressure;BME280_temperature;BME280_humidity;BME280_pressure;Samples;Min_cycle;Max_cycle;Signal;HPM_P1;HPM_P2
2023/05/20 00:01:41;;;;;;;0.63;0.63;;;;;10.20;96105.00;;;;5054574;28;20188;-57
2023/05/20 00:04:08;;;;;;;1.43;1.33;;;;;10.30;96102.00;;;;5054245;28;20228;-57
2023/05/20 00:06:36;;;;;;;1.07;1.07;;;;;10.20;96108.00;;;;5054195;28;20242;-57
2023/05/20 00:09:03;;;;;;;1.10;1.10;;;;;10.20;96093.00;;;;5054237;28;20199;-57
2023/05/20 00:11:30;;;;;;;0.60;0.60;;;;;10.20;96096.00;;;;5054345;28;20223;-57
2023/05/20 00:13:58;;;;;;;0.80;0.80;;;;;10.20;96090.00;;;;5053991;28;20212;-57
2023/05/20 00:16:25;;;;;;;5.40;1.73;;;;;10.10;96095.00;;;;5054340;28;20568;-57
2023/05/20 00:18:55;;;;;;;0.57;0.57;;;;;10.10;96099.00;;;;5053992;28;20703;-57
2023/05/20 00:21:22;;;;;;;1.20;1.20;;;;;10.10;96103.00;;;;5053962;28;20314;-57
2023/05/20 00:23:50;;;;;;;0.80;0.80;;;;;10.00;96091.00;;;;5053843;28;20219;-57
2023/05/20 00:26:18;;;;;;;0.97;0.97;;;;;9.90;96086.00;;;;5053843;28;20227;-57
2023/05/20 00:28:45;;;;;;;1.13;1.00;;;;;10.00;96093.00;;;;5054019;28;20223;-57
2023/05/20 00:31:12;;;;;;;0.97;0.97;;;;;9.90;96091.00;;;;5053842;28;20215;-57
2023/05/20 00:33:40;;;;;;;2.50;1.50;;;;;9.70;96095.00;;;;5053943;28;20220;-57
2023/05/20 00:36:09;;;;;;;0.97;0.97;;;;;9.70;96092.00;;;;5053631;28;20220;-57
2023/05/20 00:38:36;;;;;;;1.10;1.10;;;;;9.70;96094.00;;;;5053626;28;20203;-57
2023/05/20 00:41:03;;;;;;;1.33;1.23;;;;;9.90;96096.00;;;;5053856;28;20274;-57
2023/05/20 00:43:31;;;;;;;0.97;0.97;;;;;9.90;96102.00;;;;5053565;28;20216;-57
2023/05/20 00:45:58;;;;;;;0.87;0.87;;;;;10.10;96104.00;;;;5035742;28;20281;-57
2023/05/20 00:48:25;;;;;;;1.10;1.10;;;;;10.10;96097.00;;;;5053825;28;20188;-57
2023/05/20 00:50:53;;;;;;;1.30;1.30;;;;;10.10;96097.00;;;;5053676;28;20215;-56
2023/05/20 00:53:22;;;;;;;1.57;1.03;;;;;10.20;96092.00;;;;5053308;28;20224;-57
2023/05/20 00:55:49;;;;;;;2.77;1.77;;;;;10.20;96088.00;;;;5053668;28;20196;-57
2023/05/20 00:58:17;;;;;;;0.80;0.80;;;;;10.20;96082.00;;;;5053607;28;20199;-57
2023/05/20 01:00:44;;;;;;;3.07;2.07;;;;;10.20;96087.00;;;;5053326;28;20200;-57
2023/05/20 01:03:12;;;;;;;1.13;1.13;;;;;10.20;96081.00;;;;5053204;28;20701;-57
2023/05/20 01:05:39;;;;;;;0.87;0.87;;;;;10.10;96081.00;;;;5053297;28;20196;-57
2023/05/20 01:08:07;;;;;;;0.90;0.90;;;;;10.00;96078.00;;;;5053241;28;20204;-57
2023/05/20 01:10:39;;;;;;;1.63;1.53;;;;;10.10;96081.00;;;;5053379;28;20566;-57
2023/05/20 01:13:11;;;;;;;1.23;1.23;;;;;10.00;96079.00;;;;5053035;28;20569;-57
2023/05/20 01:15:40;;;;;;;0.70;0.70;;;;;10.00;96081.00;;;;5053432;28;20203;-57
2023/05/20 01:18:10;;;;;;;0.97;0.97;;;;;10.00;96081.00;;;;5053387;28;20235;-57
2023/05/20 01:20:38;;;;;;;1.20;1.17;;;;;10.00;96078.00;;;;5053289;28;20195;-56
2023/05/20 01:23:07;;;;;;;0.97;0.97;;;;;9.90;96074.00;;;;5052556;28;20277;-57
2023/05/20 01:25:34;;;;;;;1.43;1.33;;;;;10.00;96078.00;;;;5053029;28;20192;-57
2023/05/20 01:28:01;;;;;;;0.70;0.70;;;;;10.10;96082.00;;;;5053132;28;20192;-57
2023/05/20 01:30:34;;;;;;;1.27;1.20;;;;;10.10;96082.00;;;;5052981;28;20199;-57
2023/05/20 01:33:07;;;;;;;1.20;1.10;;;;;10.30;96073.00;;;;5053395;28;20254;-57
2023/05/20 01:35:35;;;;;;;1.10;1.07;;;;;10.30;96070.00;;;;5053517;28;20191;-57
2023/05/20 01:38:06;;;;;;;1.00;1.00;;;;;10.50;96067.00;;;;5035039;28;20244;-57
2023/05/20 01:40:34;;;;;;;2.97;1.40;;;;;10.40;96067.00;;;;5035081;28;20188;-57
2023/05/20 01:43:03;;;;;;;0.80;0.80;;;;;10.30;96060.00;;;;5052785;28;20216;-57
2023/05/20 01:45:30;;;;;;;0.90;0.90;;;;;10.10;96061.00;;;;5052851;28;20200;-57
2023/05/20 01:47:58;;;;;;;1.20;1.13;;;;;10.20;96065.00;;;;5052838;28;20257;-57
2023/05/20 01:50:25;;;;;;;2.10;1.13;;;;;10.40;96068.00;;;;5052775;28;20253;-57
2023/05/20 01:52:52;;;;;;;0.87;0.87;;;;;10.20;96073.00;;;;5052650;28;20247;-56
2023/05/20 01:55:21;;;;;;;0.90;0.90;;;;;10.20;96069.00;;;;5052854;28;20655;-56
2023/05/20 01:57:49;;;;;;;0.73;0.73;;;;;10.30;96062.00;;;;5052693;28;20192;-57
2023/05/20 02:00:16;;;;;;;0.80;0.80;;;;;10.20;96061.00;;;;5052711;28;20250;-56
2023/05/20 02:02:44;;;;;;;0.70;0.70;;;;;10.10;96061.00;;;;5052639;28;20707;-56
2023/05/20 02:05:11;;;;;;;0.70;0.70;;;;;10.10;96056.00;;;;5052712;28;20215;-56
2023/05/20 02:07:38;;;;;;;0.83;0.83;;;;;10.10;96055.00;;;;5052656;28;20200;-57
2023/05/20 02:10:07;;;;;;;1.43;1.33;;;;;10.10;96051.00;;;;5052830;28;20192;-56
2023/05/20 02:12:35;;;;;;;1.20;1.20;;;;;10.20;96055.00;;;;5052482;28;20686;-57
2023/05/20 02:15:03;;;;;;;1.70;1.60;;;;;10.30;96050.00;;;;5052557;28;20195;-57
2023/05/20 02:17:30;;;;;;;1.40;1.30;;;;;10.30;96046.00;;;;5052801;28;20591;-58
2023/05/20 02:19:58;;;;;;;0.87;0.87;;;;;10.30;96059.00;;;;5052521;28;20651;-57
2023/05/20 02:22:25;;;;;;;23.67;1.87;;;;;10.30;96054.00;;;;5052439;28;20219;-56
2023/05/20 02:24:52;;;;;;;2.87;1.57;;;;;10.30;96048.00;;;;5052501;28;20192;-57
2023/05/20 02:27:20;;;;;;;1.07;1.07;;;;;10.30;96053.00;;;;5052468;28;20203;-57
2023/05/20 02:29:48;;;;;;;1.10;1.10;;;;;10.20;96052.00;;;;5052399;28;20196;-57
2023/05/20 02:32:16;;;;;;;3.50;1.10;;;;;10.30;96050.00;;;;5052255;28;20223;-57
2023/05/20 02:34:43;;;;;;;1.30;1.30;;;;;10.20;96049.00;;;;5052389;28;20203;-58
2023/05/20 02:37:11;;;;;;;0.90;0.90;;;;;10.30;96045.00;;;;5037795;28;20207;-58
2023/05/20 02:39:38;;;;;;;0.67;0.67;;;;;10.30;96052.00;;;;5055897;28;20232;-58
2023/05/20 02:42:06;;;;;;;2.00;1.33;;;;;10.30;96036.00;;;;5055791;28;20702;-56
2023/05/20 02:44:33;;;;;;;1.10;1.10;;;;;10.30;96039.00;;;;5056319;28;20193;-57
2023/05/20 02:47:02;;;;;;;0.73;0.73;;;;;10.30;96040.00;;;;5056528;28;20203;-57
2023/05/20 02:49:29;;;;;;;0.80;0.80;;;;;10.30;96045.00;;;;5056057;28;20250;-57
2023/05/20 02:51:56;;;;;;;0.83;0.83;;;;;10.30;96039.00;;;;5055572;28;20629;-57
2023/05/20 02:54:24;;;;;;;0.97;0.97;;;;;10.30;96045.00;;;;5055684;28;20246;-57
2023/05/20 02:56:51;;;;;;;1.17;1.17;;;;;10.30;96042.00;;;;5056159;28;20192;-57
2023/05/20 02:59:19;;;;;;;0.90;0.90;;;;;10.30;96045.00;;;;5037691;28;20202;-57
2023/05/20 03:01:46;;;;;;;1.00;1.00;;;;;10.30;96054.00;;;;5055473;28;20188;-57
2023/05/20 03:04:17;;;;;;;1.20;1.20;;;;;10.30;96048.00;;;;5055416;28;20196;-57
2023/05/20 03:06:45;;;;;;;1.67;1.57;;;;;10.30;96040.00;;;;5055462;28;20191;-57
2023/05/20 03:09:13;;;;;;;0.93;0.93;;;;;10.20;96039.00;;;;5055371;28;20196;-57
2023/05/20 03:11:40;;;;;;;1.10;1.10;;;;;10.20;96040.00;;;;5055508;28;20239;-57
2023/05/20 03:14:07;;;;;;;1.47;1.40;;;;;10.20;96046.00;;;;5055057;28;20710;-57
2023/05/20 03:16:35;;;;;;;1.10;1.10;;;;;10.20;96051.00;;;;5055213;28;20196;-58
2023/05/20 03:19:02;;;;;;;1.70;1.43;;;;;10.30;96054.00;;;;5037282;28;20287;-57
2023/05/20 03:21:31;;;;;;;1.27;1.17;;;;;10.30;96047.00;;;;5055153;28;20200;-58
2023/05/20 03:23:58;;;;;;;1.13;1.13;;;;;10.40;96047.00;;;;5055008;28;20766;-57
2023/05/20 03:26:26;;;;;;;0.60;0.60;;;;;10.30;96038.00;;;;5055319;28;20200;-57
2023/05/20 03:28:53;;;;;;;1.27;1.27;;;;;10.40;96046.00;;;;5037061;28;20667;-57
2023/05/20 03:31:21;;;;;;;1.10;1.10;;;;;10.40;96045.00;;;;5054845;28;20239;-57
2023/05/20 03:33:48;;;;;;;1.20;1.20;;;;;10.40;96038.00;;;;5054810;28;20691;-57
2023/05/20 03:36:15;;;;;;;1.00;1.00;;;;;10.60;96036.00;;;;5054861;28;20207;-57
2023/05/20 03:38:44;;;;;;;1.27;1.27;;;;;10.40;96045.00;;;;5054777;28;20207;-57
2023/05/20 03:41:12;;;;;;;1.77;1.67;;;;;10.40;96038.00;;;;5054667;28;20200;-57
2023/05/20 03:43:39;;;;;;;1.37;1.37;;;;;10.50;96051.00;;;;5054639;28;20258;-57
2023/05/20 03:46:06;;;;;;;0.97;0.97;;;;;10.50;96047.00;;;;5054582;28;20295;-57
2023/05/20 03:48:34;;;;;;;1.40;1.30;;;;;10.40;96045.00;;;;5054615;28;20279;-57
2023/05/20 03:51:02;;;;;;;1.40;1.30;;;;;10.50;96045.00;;;;5054582;28;20192;-57
2023/05/20 03:53:29;;;;;;;1.10;1.10;;;;;10.50;96046.00;;;;5054462;28;20223;-57
2023/05/20 03:55:58;;;;;;;1.13;1.13;;;;;10.40;96053.00;;;;5054477;28;20192;-57
2023/05/20 03:58:28;;;;;;;0.80;0.80;;;;;10.50;96052.00;;;;5055197;28;20204;-57
2023/05/20 04:00:55;;;;;;;1.80;1.10;;;;;10.50;96038.00;;;;5054326;28;20242;-57
2023/05/20 04:03:23;;;;;;;0.70;0.70;;;;;10.50;96042.00;;;;5054512;28;20254;-57
2023/05/20 04:05:50;;;;;;;1.37;1.37;;;;;10.60;96038.00;;;;5054262;28;20196;-58
2023/05/20 04:08:18;;;;;;;1.00;1.00;;;;;10.60;96037.00;;;;5054187;28;20204;-58
2023/05/20 04:10:46;;;;;;;1.53;1.43;;;;;10.60;96043.00;;;;5054211;28;20199;-58
2023/05/20 04:13:15;;;;;;;0.90;0.90;;;;;10.70;96049.00;;;;5053849;28;20228;-57
2023/05/20 04:15:43;;;;;;;1.17;1.13;;;;;10.80;96046.00;;;;5054045;28;20196;-57
2023/05/20 04:18:10;;;;;;;1.03;1.03;;;;;10.80;96043.00;;;;5054070;28;20202;-57
2023/05/20 04:20:37;;;;;;;0.80;0.80;;;;;11.00;96044.00;;;;5054015;28;20196;-58
2023/05/20 04:23:05;;;;;;;1.10;1.10;;;;;11.00;96042.00;;;;5054123;28;20714;-58
2023/05/20 04:25:33;;;;;;;0.90;0.90;;;;;10.90;96044.00;;;;5036003;28;20663;-58
2023/05/20 04:28:01;;;;;;;0.80;0.80;;;;;10.80;96031.00;;;;5054124;28;20561;-58
2023/05/20 04:30:32;;;;;;;1.40;1.30;;;;;10.90;96038.00;;;;5053807;28;20279;-57
2023/05/20 04:33:01;;;;;;;3.23;1.50;;;;;11.10;96036.00;;;;5053996;28;20220;-57
2023/05/20 04:35:28;;;;;;;0.93;0.93;;;;;11.30;96028.00;;;;5053985;28;20200;-57
2023/05/20 04:37:56;;;;;;;1.00;1.00;;;;;11.10;96026.00;;;;5054321;28;20196;-58
2023/05/20 04:40:23;;;;;;;1.00;1.00;;;;;11.00;96018.00;;;;5035842;28;20207;-58
2023/05/20 04:42:50;;;;;;;1.17;1.17;;;;;11.10;96018.00;;;;5053518;28;20273;-58
2023/05/20 04:45:18;;;;;;;1.27;1.27;;;;;11.20;96017.00;;;;5053562;28;20196;-58
2023/05/20 04:47:47;;;;;;;1.17;1.17;;;;;11.20;96024.00;;;;5053556;28;20192;-57
2023/05/20 04:50:15;;;;;;;1.10;1.10;;;;;11.10;96027.00;;;;5053568;28;20200;-57
2023/05/20 04:52:44;;;;;;;0.70;0.70;;;;;11.00;96027.00;;;;5053390;28;20223;-58
2023/05/20 04:55:14;;;;;;;0.97;0.97;;;;;11.00;96033.00;;;;5053539;28;20227;-58
2023/05/20 04:57:42;;;;;;;1.03;1.03;;;;;11.00;96026.00;;;;5035164;28;20659;-58
2023/05/20 05:00:11;;;;;;;1.57;1.53;;;;;11.00;96026.00;;;;5053233;28;20246;-58
2023/05/20 05:02:39;;;;;;;1.10;1.10;;;;;11.00;96031.00;;;;5053340;28;20212;-58
2023/05/20 05:05:08;;;;;;;4.40;1.73;;;;;11.00;96026.00;;;;5053611;28;20289;-58
2023/05/20 05:07:36;;;;;;;1.57;1.47;;;;;11.10;96023.00;;;;5053372;28;20192;-58
2023/05/20 05:10:03;;;;;;;0.90;0.90;;;;;11.20;96025.00;;;;5053298;28;20196;-58
2023/05/20 05:12:31;;;;;;;2.40;1.37;;;;;11.40;96023.00;;;;5053193;28;20582;-59
2023/05/20 05:14:58;;;;;;;1.47;1.40;;;;;11.30;96020.00;;;;5053692;28;20235;-57
2023/05/20 05:17:27;;;;;;;1.07;1.07;;;;;11.50;96023.00;;;;5053435;28;20619;-57
2023/05/20 05:19:55;;;;;;;1.03;1.03;;;;;11.30;96017.00;;;;5053416;28;20561;-58
2023/05/20 05:22:23;;;;;;;1.50;1.40;;;;;11.40;96014.00;;;;5053497;28;20265;-58
2023/05/20 05:24:51;;;;;;;1.87;1.77;;;;;11.50;96001.00;;;;5053415;28;20205;-58
2023/05/20 05:27:18;;;;;;;11.13;1.20;;;;;11.50;96001.00;;;;5053024;28;20203;-58
2023/05/20 05:29:46;;;;;;;1.13;1.13;;;;;11.70;95995.00;;;;5053297;28;20577;-57
2023/05/20 05:32:13;;;;;;;1.10;1.10;;;;;11.90;95987.00;;;;5052940;28;20207;-57
2023/05/20 05:34:40;;;;;;;1.00;1.00;;;;;12.00;95991.00;;;;5053020;28;20196;-57
2023/05/20 05:37:08;;;;;;;1.07;1.07;;;;;12.10;95993.00;;;;5035137;28;20670;-57
2023/05/20 05:39:36;;;;;;;0.83;0.83;;;;;12.20;95996.00;;;;5053228;28;20192;-58
2023/05/20 05:42:04;;;;;;;1.70;1.57;;;;;12.20;95998.00;;;;5053129;28;20650;-57
2023/05/20 05:44:32;;;;;;;0.80;0.80;;;;;12.30;96006.00;;;;5052986;28;20198;-57
2023/05/20 05:47:00;;;;;;;1.60;1.50;;;;;12.30;96001.00;;;;5052886;28;20203;-57
2023/05/20 05:49:27;;;;;;;0.97;0.97;;;;;12.40;95994.00;;;;5052893;28;20246;-57
2023/05/20 05:51:55;;;;;;;1.03;1.03;;;;;12.50;95999.00;;;;5052759;28;20200;-57
2023/05/20 05:54:22;;;;;;;1.30;1.23;;;;;12.60;95998.00;;;;5052787;28;20219;-57
2023/05/20 05:56:52;;;;;;;1.33;1.23;;;;;12.60;96004.00;;;;5052758;28;20207;-57
2023/05/20 05:59:20;;;;;;;0.90;0.90;;;;;12.70;96002.00;;;;5053103;28;20192;-57
2023/05/20 06:01:47;;;;;;;3.03;1.63;;;;;12.70;96001.00;;;;5052933;28;20207;-58
2023/05/20 06:04:14;;;;;;;0.83;0.83;;;;;12.80;96006.00;;;;5052741;28;20211;-57
2023/05/20 06:06:42;;;;;;;1.13;1.13;;;;;12.90;96005.00;;;;5052741;28;20196;-58
2023/05/20 06:09:09;;;;;;;1.57;1.47;;;;;13.00;96001.00;;;;5053334;28;20261;-58
2023/05/20 06:11:37;;;;;;;1.10;1.10;;;;;13.00;95995.00;;;;5056684;28;20206;-58
2023/05/20 06:14:06;;;;;;;0.90;0.90;;;;;13.20;95991.00;;;;5056287;28;20220;-58
2023/05/20 06:16:33;;;;;;;0.97;0.97;;;;;13.30;95989.00;;;;5056447;28;20192;-58
2023/05/20 06:19:00;;;;;;;0.90;0.90;;;;;13.40;95996.00;;;;5056377;28;20717;-58
2023/05/20 06:21:28;;;;;;;0.50;0.50;;;;;13.50;95991.00;;;;5056353;28;20666;-58
2023/05/20 06:23:55;;;;;;;1.27;1.27;;;;;13.60;95994.00;;;;5056245;28;20219;-58
2023/05/20 06:26:22;;;;;;;9.63;1.73;;;;;13.60;95992.00;;;;5056143;28;20193;-62
2023/05/20 06:28:50;;;;;;;1.07;1.07;;;;;13.60;95997.00;;;;5056394;28;20229;-58
2023/05/20 06:31:19;;;;;;;1.43;1.33;;;;;13.70;95986.00;;;;5056186;28;20194;-58
2023/05/20 06:33:46;;;;;;;1.10;1.10;;;;;13.70;95983.00;;;;5055828;28;20224;-58
2023/05/20 06:36:13;;;;;;;2.07;1.20;;;;;13.90;95978.00;;;;5056107;28;20192;-58
2023/05/20 06:38:41;;;;;;;4.03;1.53;;;;;14.00;95986.00;;;;5038030;28;20573;-58
2023/05/20 06:41:08;;;;;;;1.80;1.10;;;;;14.10;95981.00;;;;5056199;28;20220;-58
2023/05/20 06:43:36;;;;;;;1.97;1.77;;;;;14.20;95980.00;;;;5055819;28;20219;-58
2023/05/20 06:46:03;;;;;;;1.10;1.10;;;;;14.30;95970.00;;;;5055707;28;20191;-58
2023/05/20 06:48:32;;;;;;;0.93;0.93;;;;;14.40;95978.00;;;;5055792;28;20604;-57
2023/05/20 06:50:59;;;;;;;1.83;1.73;;;;;14.30;95973.00;;;;5055928;28;20196;-58
2023/05/20 06:53:26;;;;;;;1.20;1.10;;;;;14.30;95966.00;;;;5055625;28;20226;-58
2023/05/20 06:55:55;;;;;;;1.97;1.87;;;;;14.70;95976.00;;;;5055641;28;20710;-58
2023/05/20 06:58:22;;;;;;;0.97;0.97;;;;;14.80;95974.00;;;;5055506;28;20276;-58
2023/05/20 07:00:50;;;;;;;0.90;0.90;;;;;15.00;95975.00;;;;5055664;28;20196;-57
2023/05/20 07:03:17;;;;;;;1.77;1.67;;;;;15.00;95958.00;;;;5037476;28;20223;-58
2023/05/20 07:05:46;;;;;;;0.90;0.90;;;;;15.30;95954.00;;;;5037465;28;20292;-57
2023/05/20 07:08:13;;;;;;;0.83;0.83;;;;;15.40;95949.00;;;;5037453;28;20678;-57
2023/05/20 07:10:40;;;;;;;1.43;1.17;;;;;15.30;95957.00;;;;5055590;28;20299;-58
2023/05/20 07:13:08;;;;;;;1.73;1.63;;;;;15.40;95948.00;;;;5054951;28;20216;-58
2023/05/20 07:15:35;;;;;;;1.37;1.23;;;;;15.30;95959.00;;;;5055170;28;20650;-58
2023/05/20 07:18:03;;;;;;;1.17;1.10;;;;;15.40;95950.00;;;;5055332;28;20552;-58
2023/05/20 07:20:30;;;;;;;2.00;1.90;;;;;14.90;95952.00;;;;5055233;28;20563;-57
2023/05/20 07:22:59;;;;;;;3.30;2.43;;;;;15.20;95955.00;;;;5054514;28;20212;-57
2023/05/20 07:25:27;;;;;;;1.87;1.77;;;;;15.30;95958.00;;;;5054981;28;20226;-57
2023/05/20 07:27:54;;;;;;;2.50;1.43;;;;;15.30;95947.00;;;;5037559;28;20253;-58
2023/05/20 07:30:21;;;;;;;2.53;1.27;;;;;15.20;95946.00;;;;5054940;28;20246;-58
2023/05/20 07:32:49;;;;;;;1.80;1.67;;;;;15.30;95954.00;;;;5054864;28;20207;-57
2023/05/20 07:35:16;;;;;;;1.77;1.67;;;;;15.20;95950.00;;;;5054830;28;20207;-58
2023/05/20 07:37:44;;;;;;;1.70;1.57;;;;;15.20;95954.00;;;;5054847;28;20188;-58
2023/05/20 07:40:13;;;;;;;1.57;1.47;;;;;15.20;95948.00;;;;5037708;28;20581;-58
2023/05/20 07:42:40;;;;;;;0.90;0.90;;;;;15.30;95960.00;;;;5054740;28;20216;-58
2023/05/20 07:45:09;;;;;;;2.03;1.77;;;;;15.40;95949.00;;;;5054948;28;20200;-57
2023/05/20 07:47:36;;;;;;;1.50;1.43;;;;;15.50;95938.00;;;;5055140;28;20215;-57
2023/05/20 07:50:04;;;;;;;3.03;1.40;;;;;15.70;95932.00;;;;5054892;28;20200;-57
2023/05/20 07:52:31;;;;;;;1.73;1.63;;;;;15.90;95937.00;;;;5054496;28;20675;-58
2023/05/20 07:54:59;;;;;;;2.63;1.53;;;;;15.90;95940.00;;;;5054395;28;20240;-58
2023/05/20 07:57:27;;;;;;;1.43;1.33;;;;;15.90;95940.00;;;;5054474;28;20287;-58
2023/05/20 07:59:55;;;;;;;1.30;1.23;;;;;15.90;95937.00;;;;5054381;28;20250;-58
2023/05/20 08:02:22;;;;;;;1.60;1.50;;;;;15.80;95942.00;;;;5054198;28;20212;-58
2023/05/20 08:04:49;;;;;;;1.73;1.63;;;;;15.80;95942.00;;;;5054608;28;20196;-58
2023/05/20 08:07:17;;;;;;;0.93;0.93;;;;;15.70;95945.00;;;;5054241;28;20702;-58
2023/05/20 08:09:44;;;;;;;3.93;1.80;;;;;15.80;95931.00;;;;5054307;28;20196;-58
2023/05/20 08:12:11;;;;;;;0.97;0.97;;;;;15.90;95922.00;;;;5053881;28;20243;-57
2023/05/20 08:14:40;;;;;;;1.43;1.40;;;;;16.10;95922.00;;;;5054127;28;20206;-57
2023/05/20 08:17:07;;;;;;;2.07;1.97;;;;;16.50;95920.00;;;;5054319;28;20192;-57
2023/05/20 08:19:35;;;;;;;1.00;1.00;;;;;16.50;95923.00;;;;5054175;28;20203;-57
2023/05/20 08:22:02;;;;;;;1.00;1.00;;;;;16.70;95916.00;;;;5053791;28;20210;-57
2023/05/20 08:24:30;;;;;;;1.40;1.30;;;;;16.80;95918.00;;;;5054488;28;20203;-57
2023/05/20 08:26:57;;;;;;;1.50;1.40;;;;;16.50;95937.00;;;;5054226;28;20592;-57
2023/05/20 08:29:25;;;;;;;1.17;1.17;;;;;16.60;95933.00;;;;5054271;28;20197;-57
2023/05/20 08:31:53;;;;;;;2.67;1.30;;;;;16.70;95936.00;;;;5053791;28;20200;-57
2023/05/20 08:34:21;;;;;;;2.37;1.60;;;;;16.60;95934.00;;;;5052987;28;20658;-57
2023/05/20 08:36:48;;;;;;;2.10;1.70;;;;;16.50;95937.00;;;;5053601;28;20184;-57
2023/05/20 08:39:15;;;;;;;1.50;1.40;;;;;16.60;95942.00;;;;5053579;28;20196;-57
2023/05/20 08:41:43;;;;;;;0.80;0.80;;;;;16.50;95941.00;;;;5054109;28;20237;-57
2023/05/20 08:44:11;;;;;;;2.00;1.90;;;;;16.40;95945.00;;;;5053513;28;20271;-57
2023/05/20 08:46:39;;;;;;;1.73;1.63;;;;;16.50;95942.00;;;;5053544;28;20299;-57
2023/05/20 08:49:08;;;;;;;1.47;1.37;;;;;16.60;95939.00;;;;5053564;28;20192;-57
2023/05/20 08:51:37;;;;;;;1.93;1.83;;;;;16.70;95933.00;;;;5053441;28;20188;-57
2023/05/20 08:54:05;;;;;;;0.90;0.90;;;;;16.80;95943.00;;;;5053259;28;20220;-57
2023/05/20 08:56:32;;;;;;;1.57;1.47;;;;;16.70;95939.00;;;;5053661;28;20196;-57
2023/05/20 08:59:00;;;;;;;1.60;1.50;;;;;16.70;95934.00;;;;5053344;28;20636;-58
2023/05/20 09:01:27;;;;;;;1.47;1.43;;;;;16.90;95931.00;;;;5053323;28;20199;-58
2023/05/20 09:03:55;;;;;;;1.67;1.57;;;;;17.20;95935.00;;;;5053240;28;20606;-58
2023/05/20 09:06:23;;;;;;;1.00;1.00;;;;;17.20;95933.00;;;;5053221;28;20215;-58
2023/05/20 09:08:51;;;;;;;1.07;1.07;;;;;17.20;95932.00;;;;5053185;28;20753;-58
2023/05/20 09:11:21;;;;;;;1.27;1.27;;;;;17.30;95931.00;;;;5053857;28;20601;-58
2023/05/20 09:13:50;;;;;;;1.87;1.40;;;;;17.50;95937.00;;;;5053486;28;20306;-58
2023/05/20 09:16:18;;;;;;;1.10;1.10;;;;;17.60;95934.00;;;;5053147;28;20199;-57
2023/05/20 09:18:46;;;;;;;1.20;1.20;;;;;17.70;95928.00;;;;5053457;28;20193;-57
2023/05/20 09:21:13;;;;;;;1.63;1.53;;;;;17.60;95933.00;;;;5053023;28;20196;-57
2023/05/20 09:23:48;;;;;;;2.47;2.27;;;;;17.20;95933.00;;;;5053214;28;20227;-57
2023/05/20 09:26:17;;;;;;;1.93;1.83;;;;;17.60;95924.00;;;;5052968;28;20215;-57
2023/05/20 09:28:45;;;;;;;1.07;1.07;;;;;18.10;95913.00;;;;5052953;28;20192;-57
2023/05/20 09:31:14;;;;;;;1.10;1.10;;;;;18.00;95911.00;;;;5052933;28;20184;-57
2023/05/20 09:33:42;;;;;;;2.33;2.13;;;;;18.10;95916.00;;;;5052716;28;20220;-57
2023/05/20 09:36:10;;;;;;;1.83;1.40;;;;;17.90;95912.00;;;;5052892;28;20683;-57
2023/05/20 09:38:41;;;;;;;1.00;1.00;;;;;18.30;95912.00;;;;5052887;28;20188;-57
2023/05/20 09:41:11;;;;;;;1.10;1.10;;;;;18.70;95911.00;;;;5052936;28;20259;-57
2023/05/20 09:43:40;;;;;;;1.73;1.63;;;;;18.60;95913.00;;;;5052830;28;20207;-57
2023/05/20 09:46:08;;;;;;;1.80;1.40;;;;;18.70;95912.00;;;;5056458;28;20241;-57
2023/05/20 09:48:36;;;;;;;1.83;1.73;;;;;18.50;95915.00;;;;5057126;28;20373;-57
2023/05/20 09:51:05;;;;;;;1.20;1.10;;;;;18.60;95912.00;;;;5056844;28;20226;-57
2023/05/20 09:53:33;;;;;;;0.90;0.90;;;;;18.40;95908.00;;;;5056650;28;20220;-57
2023/05/20 09:56:02;;;;;;;1.33;1.30;;;;;18.80;95900.00;;;;5056722;28;20253;-56
2023/05/20 09:58:30;;;;;;;2.30;1.87;;;;;19.20;95908.00;;;;5057015;28;20196;-57
2023/05/20 10:00:57;;;;;;;2.77;1.83;;;;;19.20;95909.00;;;;5056632;28;20279;-57
2023/05/20 10:03:26;;;;;;;1.73;1.53;;;;;19.50;95889.00;;;;5056605;28;20687;-57
2023/05/20 10:06:16;;;;;;;1.70;1.57;;;;;19.60;95891.00;;;;5056850;28;20250;-57
2023/05/20 10:08:58;;;;;;;1.60;1.50;;;;;20.20;95901.00;;;;5056729;28;20194;-57
2023/05/20 10:11:33;;;;;;;1.43;1.33;;;;;20.60;95909.00;;;;5056489;28;20678;-57
2023/05/20 10:14:24;;;;;;;1.50;1.40;;;;;20.00;95890.00;;;;5056240;28;20748;-57
2023/05/20 10:16:56;;;;;;;1.30;1.13;;;;;19.90;95907.00;;;;5036370;28;20239;-57
2023/05/20 10:19:29;;;;;;;1.53;1.43;;;;;20.00;95884.00;;;;5056489;28;20658;-56
2023/05/20 10:22:01;;;;;;;1.67;1.57;;;;;20.00;95886.00;;;;5056521;28;20188;-57
2023/05/20 10:24:33;;;;;;;1.33;1.33;;;;;19.90;95894.00;;;;5038365;28;20192;-57
2023/05/20 10:27:03;;;;;;;1.53;1.43;;;;;19.80;95896.00;;;;5056143;28;20196;-57
2023/05/20 10:29:42;;;;;;;6.77;2.07;;;;;19.60;95900.00;;;;5056159;28;20188;-57
2023/05/20 10:32:10;;;;;;;1.03;1.03;;;;;19.50;95892.00;;;;5056623;28;20212;-58
2023/05/20 10:34:47;;;;;;;1.30;1.23;;;;;19.60;95883.00;;;;5056025;28;20307;-57
2023/05/20 10:37:26;;;;;;;1.17;1.17;;;;;20.00;95873.00;;;;5056109;28;20599;-58
2023/05/20 10:40:03;;;;;;;1.50;1.40;;;;;20.30;95879.00;;;;5055955;28;20184;-58
2023/05/20 10:42:32;;;;;;;1.47;1.37;;;;;20.50;95875.00;;;;5056411;28;20627;-57
2023/05/20 10:44:59;;;;;;;1.53;1.43;;;;;20.70;95875.00;;;;5055834;28;20191;-57
2023/05/20 10:47:27;;;;;;;1.73;1.53;;;;;20.50;95867.00;;;;5055770;28;20196;-57
2023/05/20 10:49:55;;;;;;;1.07;1.07;;;;;20.30;95876.00;;;;5056058;28;20192;-57
2023/05/20 10:52:23;;;;;;;2.90;1.33;;;;;20.50;95880.00;;;;5055639;28;20220;-57
2023/05/20 10:54:57;;;;;;;0.90;0.90;;;;;20.20;95890.00;;;;5056057;28;20266;-58
2023/05/20 10:57:26;;;;;;;0.80;0.80;;;;;20.00;95873.00;;;;5054807;28;20582;-58
2023/05/20 10:59:55;;;;;;;1.87;1.73;;;;;20.00;95885.00;;;;5055406;28;20199;-58
2023/05/20 11:02:25;;;;;;;1.27;1.17;;;;;19.60;95872.00;;;;5055495;28;20226;-58
2023/05/20 11:04:53;;;;;;;0.90;0.90;;;;;20.30;95873.00;;;;5056060;28;20640;-58
2023/05/20 11:07:27;;;;;;;1.27;1.17;;;;;20.80;95858.00;;;;5055468;28;20263;-58
2023/05/20 11:09:57;;;;;;;1.20;1.20;;;;;20.40;95868.00;;;;5055447;28;20195;-58
2023/05/20 11:12:26;;;;;;;2.30;1.30;;;;;20.90;95860.00;;;;5055471;28;20243;-58
2023/05/20 11:14:55;;;;;;;2.80;1.47;;;;;20.90;95871.00;;;;5055293;28;20705;-56
2023/05/20 11:17:22;;;;;;;3.33;1.33;;;;;20.50;95857.00;;;;5055551;28;20541;-58
2023/05/20 11:19:50;;;;;;;1.57;1.47;;;;;20.40;95861.00;;;;5055246;28;20614;-57
2023/05/20 11:22:18;;;;;;;1.23;1.23;;;;;20.20;95867.00;;;;5055137;28;20223;-57
2023/05/20 11:24:46;;;;;;;1.50;1.40;;;;;20.50;95849.00;;;;5055132;28;20196;-57
2023/05/20 11:27:13;;;;;;;1.00;1.00;;;;;21.10;95840.00;;;;5055132;28;20199;-57
2023/05/20 11:29:40;;;;;;;2.10;1.33;;;;;21.40;95844.00;;;;5037239;28;20207;-57
2023/05/20 11:32:10;;;;;;;1.17;1.10;;;;;21.90;95847.00;;;;5055021;28;20572;-57
2023/05/20 11:34:39;;;;;;;2.03;1.10;;;;;22.30;95842.00;;;;5054902;28;20223;-57
2023/05/20 11:37:08;;;;;;;1.17;0.88;;;;;22.90;95835.00;;;;5054894;28;20246;-58
2023/05/20 11:39:36;;;;;;;1.13;1.10;;;;;22.50;95833.00;;;;5054815;28;20200;-58
2023/05/20 11:42:04;;;;;;;0.98;0.98;;;;;22.30;95841.00;;;;5054681;28;20243;-59
2023/05/20 11:44:32;;;;;;;1.10;1.10;;;;;22.40;95839.00;;;;5054820;28;20271;-58
2023/05/20 11:47:01;;;;;;;1.63;1.52;;;;;22.40;95828.00;;;;5054803;28;20196;-58
2023/05/20 11:49:30;;;;;;;0.90;0.90;;;;;22.40;95826.00;;;;5054682;28;20219;-58
2023/05/20 11:51:57;;;;;;;1.23;1.23;;;;;22.40;95830.00;;;;5054710;28;20196;-58
2023/05/20 11:54:25;;;;;;;0.90;0.90;;;;;22.40;95829.00;;;;5054548;28;20687;-58
2023/05/20 11:56:55;;;;;;;1.33;1.25;;;;;22.30;95841.00;;;;5054804;28;20189;-58
2023/05/20 11:59:24;;;;;;;0.80;0.80;;;;;21.70;95848.00;;;;5054771;28;20196;-58
2023/05/20 12:01:52;;;;;;;0.63;0.63;;;;;21.20;95842.00;;;;5054391;28;20199;-58
2023/05/20 12:04:19;;;;;;;1.13;1.13;;;;;21.20;95838.00;;;;5054690;28;20551;-58
2023/05/20 12:06:48;;;;;;;0.80;0.80;;;;;21.30;95831.00;;;;5054313;28;20192;-58
2023/05/20 12:09:15;;;;;;;1.65;1.20;;;;;21.30;95829.00;;;;5054196;28;20200;-58
2023/05/20 12:11:44;;;;;;;2.53;1.10;;;;;21.30;95832.00;;;;5054100;28;20216;-58
2023/05/20 12:14:12;;;;;;;1.38;1.27;;;;;21.60;95834.00;;;;5053998;28;20215;-58
2023/05/20 12:16:40;;;;;;;1.67;1.58;;;;;21.40;95830.00;;;;5054177;28;20196;-59
2023/05/20 12:19:08;;;;;;;0.60;0.60;;;;;21.60;95828.00;;;;5054711;28;20242;-58
2023/05/20 12:21:35;;;;;;;0.73;0.70;;;;;21.90;95827.00;;;;5054025;28;20196;-59
2023/05/20 12:24:05;;;;;;;1.52;0.88;;;;;22.00;95810.00;;;;5053964;28;20273;-58